sensor_id;sensor_type;location;lat;lon;timestamp;P1;durP1;ratioP1;P2;durP2;ratioP2
28022;SDS011;67403;50.104;8.758;2024-02-21T00:01:14;14.20;;;5.40;;
28022;SDS011;67403;50.104;8.758;2024-02-21T00:03:42;18.30;;;4.95;;
28022;SDS011;67403;50.104;8.758;2024-02-21T00:06:09;10.60;;;5.05;;
28022;SDS011;67403;50.104;8.758;2024-02-21T00:08:36;14.77;;;4.75;;
28022;SDS011;67403;50.104;8.758;2024-02-21T00:11:05;19.73;;;5.72;;
28022;SDS011;67403;50.104;8.758;2024-02-21T00:13:32;15.45;;;5.28;;
28022;SDS011;67403;50.104;8.758;2024-02-21T00:16:00;14.27;;;5.55;;
28022;SDS011;67403;50.104;8.758;2024-02-21T00:18:27;18.80;;;6.00;;
28022;SDS011;67403;50.104;8.758;2024-02-21T00:20:54;17.77;;;6.22;;
28022;SDS011;67403;50.104;8.758;2024-02-21T00:23:21;18.20;;;6.22;;
28022;SDS011;67403;50.104;8.758;2024-02-21T00:25:49;19.38;;;6.85;;
28022;SDS011;67403;50.104;8.758;2024-02-21T00:28:17;18.38;;;5.43;;
28022;SDS011;67403;50.104;8.758;2024-02-21T00:30:45;13.40;;;6.03;;
28022;SDS011;67403;50.104;8.758;2024-02-21T00:33:13;20.73;;;6.25;;
28022;SDS011;67403;50.104;8.758;2024-02-21T00:35:40;16.90;;;5.72;;
28022;SDS011;67403;50.104;8.758;2024-02-21T00:38:07;23.05;;;7.03;;
28022;SDS011;67403;50.104;8.758;2024-02-21T00:40:34;18.00;;;6.90;;
28022;SDS011;67403;50.104;8.758;2024-02-21T00:43:02;20.23;;;7.70;;
28022;SDS011;67403;50.104;8.758;2024-02-21T00:45:31;16.38;;;6.75;;
28022;SDS011;67403;50.104;8.758;2024-02-21T00:47:58;25.92;;;6.55;;
28022;SDS011;67403;50.104;8.758;2024-02-21T00:50:25;21.88;;;6.82;;
28022;SDS011;67403;50.104;8.758;2024-02-21T00:52:53;27.63;;;6.57;;
28022;SDS011;67403;50.104;8.758;2024-02-21T00:55:20;22.90;;;7.07;;
28022;SDS011;67403;50.104;8.758;2024-02-21T00:57:47;20.08;;;7.10;;
28022;SDS011;67403;50.104;8.758;2024-02-21T01:00:15;17.75;;;6.90;;
28022;SDS011;67403;50.104;8.758;2024-02-21T01:02:43;17.13;;;7.07;;
28022;SDS011;67403;50.104;8.758;2024-02-21T01:05:10;16.67;;;7.43;;
28022;SDS011;67403;50.104;8.758;2024-02-21T01:07:38;22.15;;;7.00;;
28022;SDS011;67403;50.104;8.758;2024-02-21T01:10:06;15.48;;;7.20;;
28022;SDS011;67403;50.104;8.758;2024-02-21T01:12:33;26.17;;;8.02;;
28022;SDS011;67403;50.104;8.758;2024-02-21T01:15:00;19.13;;;7.55;;
28022;SDS011;67403;50.104;8.758;2024-02-21T01:17:27;25.50;;;7.22;;
28022;SDS011;67403;50.104;8.758;2024-02-21T01:19:56;21.00;;;7.65;;
28022;SDS011;67403;50.104;8.758;2024-02-21T01:22:23;16.58;;;6.78;;
28022;SDS011;67403;50.104;8.758;2024-02-21T01:24:50;18.70;;;7.30;;
28022;SDS011;67403;50.104;8.758;2024-02-21T01:27:18;21.45;;;7.55;;
28022;SDS011;67403;50.104;8.758;2024-02-21T01:29:46;23.20;;;7.95;;
28022;SDS011;67403;50.104;8.758;2024-02-21T01:32:14;15.18;;;7.13;;
28022;SDS011;67403;50.104;8.758;2024-02-21T01:34:42;19.83;;;8.18;;
28022;SDS011;67403;50.104;8.758;2024-02-21T01:37:10;26.67;;;7.55;;
28022;SDS011;67403;50.104;8.758;2024-02-21T01:39:38;21.95;;;7.40;;
28022;SDS011;67403;50.104;8.758;2024-02-21T01:42:05;24.38;;;8.02;;
28022;SDS011;67403;50.104;8.758;2024-02-21T01:44:33;15.95;;;7.25;;
28022;SDS011;67403;50.104;8.758;2024-02-21T01:47:01;16.30;;;7.03;;
28022;SDS011;67403;50.104;8.758;2024-02-21T01:49:29;22.13;;;7.68;;
28022;SDS011;67403;50.104;8.758;2024-02-21T01:51:56;20.05;;;7.78;;
28022;SDS011;67403;50.104;8.758;2024-02-21T01:54:25;20.35;;;7.80;;
28022;SDS011;67403;50.104;8.758;2024-02-21T01:56:54;28.08;;;7.57;;
28022;SDS011;67403;50.104;8.758;2024-02-21T01:59:21;21.38;;;8.13;;
28022;SDS011;67403;50.104;8.758;2024-02-21T02:01:49;25.83;;;8.65;;
28022;SDS011;67403;50.104;8.758;2024-02-21T02:04:16;24.77;;;8.35;;
28022;SDS011;67403;50.104;8.758;2024-02-21T02:06:44;20.65;;;8.30;;
28022;SDS011;67403;50.104;8.758;2024-02-21T02:09:11;26.70;;;8.15;;
28022;SDS011;67403;50.104;8.758;2024-02-21T02:11:40;20.30;;;7.53;;
28022;SDS011;67403;50.104;8.758;2024-02-21T02:14:07;19.67;;;8.30;;
28022;SDS011;67403;50.104;8.758;2024-02-21T02:16:34;20.50;;;8.00;;
28022;SDS011;67403;50.104;8.758;2024-02-21T02:19:01;25.50;;;9.23;;
28022;SDS011;67403;50.104;8.758;2024-02-21T02:21:29;18.48;;;8.02;;
28022;SDS011;67403;50.104;8.758;2024-02-21T02:23:58;22.90;;;9.63;;
28022;SDS011;67403;50.104;8.758;2024-02-21T02:26:25;24.25;;;8.02;;
28022;SDS011;67403;50.104;8.758;2024-02-21T02:28:53;22.15;;;8.55;;
28022;SDS011;67403;50.104;8.758;2024-02-21T02:31:20;18.50;;;7.75;;
28022;SDS011;67403;50.104;8.758;2024-02-21T02:33:48;21.40;;;8.27;;
28022;SDS011;67403;50.104;8.758;2024-02-21T02:36:15;17.13;;;7.50;;
28022;SDS011;67403;50.104;8.758;2024-02-21T02:38:43;23.77;;;8.70;;
28022;SDS011;67403;50.104;8.758;2024-02-21T02:41:11;17.75;;;8.00;;
28022;SDS011;67403;50.104;8.758;2024-02-21T02:43:38;19.95;;;8.70;;
28022;SDS011;67403;50.104;8.758;2024-02-21T02:46:06;18.27;;;7.75;;
28022;SDS011;67403;50.104;8.758;2024-02-21T02:48:33;19.92;;;8.00;;
28022;SDS011;67403;50.104;8.758;2024-02-21T02:51:00;15.68;;;7.63;;
28022;SDS011;67403;50.104;8.758;2024-02-21T02:53:27;21.17;;;8.35;;
28022;SDS011;67403;50.104;8.758;2024-02-21T02:55:55;20.85;;;7.93;;
28022;SDS011;67403;50.104;8.758;2024-02-21T02:58:23;21.38;;;9.02;;
28022;SDS011;67403;50.104;8.758;2024-02-21T03:00:50;20.05;;;8.77;;
28022;SDS011;67403;50.104;8.758;2024-02-21T03:03:18;20.38;;;7.82;;
28022;SDS011;67403;50.104;8.758;2024-02-21T03:05:45;24.13;;;11.55;;
28022;SDS011;67403;50.104;8.758;2024-02-21T03:08:12;23.20;;;8.30;;
28022;SDS011;67403;50.104;8.758;2024-02-21T03:10:40;17.50;;;7.65;;
28022;SDS011;67403;50.104;8.758;2024-02-21T03:13:07;15.48;;;8.13;;
28022;SDS011;67403;50.104;8.758;2024-02-21T03:15:36;20.90;;;8.15;;
28022;SDS011;67403;50.104;8.758;2024-02-21T03:18:03;15.75;;;8.45;;
28022;SDS011;67403;50.104;8.758;2024-02-21T03:20:31;23.35;;;7.95;;
28022;SDS011;67403;50.104;8.758;2024-02-21T03:22:58;24.85;;;7.75;;
28022;SDS011;67403;50.104;8.758;2024-02-21T03:25:25;23.15;;;8.50;;
28022;SDS011;67403;50.104;8.758;2024-02-21T03:27:53;19.70;;;8.05;;
28022;SDS011;67403;50.104;8.758;2024-02-21T03:30:20;22.98;;;8.98;;
28022;SDS011;67403;50.104;8.758;2024-02-21T03:32:48;20.40;;;8.38;;
28022;SDS011;67403;50.104;8.758;2024-02-21T03:35:16;24.38;;;8.68;;
28022;SDS011;67403;50.104;8.758;2024-02-21T03:37:44;18.35;;;9.48;;
28022;SDS011;67403;50.104;8.758;2024-02-21T03:40:11;24.23;;;7.88;;
28022;SDS011;67403;50.104;8.758;2024-02-21T03:42:39;22.45;;;9.18;;
28022;SDS011;67403;50.104;8.758;2024-02-21T03:45:06;19.60;;;7.85;;
28022;SDS011;67403;50.104;8.758;2024-02-21T03:47:34;23.00;;;8.68;;
28022;SDS011;67403;50.104;8.758;2024-02-21T03:50:02;22.00;;;8.27;;
28022;SDS011;67403;50.104;8.758;2024-02-21T03:52:30;20.10;;;8.25;;
28022;SDS011;67403;50.104;8.758;2024-02-21T03:54:57;23.30;;;8.27;;
28022;SDS011;67403;50.104;8.758;2024-02-21T03:57:24;23.45;;;7.65;;
28022;SDS011;67403;50.104;8.758;2024-02-21T03:59:51;21.48;;;8.73;;
28022;SDS011;67403;50.104;8.758;2024-02-21T04:02:19;19.33;;;7.82;;
28022;SDS011;67403;50.104;8.758;2024-02-21T04:04:46;18.23;;;7.90;;
28022;SDS011;67403;50.104;8.758;2024-02-21T04:07:14;20.50;;;8.80;;
28022;SDS011;67403;50.104;8.758;2024-02-21T04:09:42;22.88;;;8.73;;
28022;SDS011;67403;50.104;8.758;2024-02-21T04:12:09;25.33;;;8.70;;
28022;SDS011;67403;50.104;8.758;2024-02-21T04:14:36;19.27;;;8.77;;
28022;SDS011;67403;50.104;8.758;2024-02-21T04:17:05;24.83;;;8.70;;
28022;SDS011;67403;50.104;8.758;2024-02-21T04:19:32;19.90;;;7.50;;
28022;SDS011;67403;50.104;8.758;2024-02-21T04:22:00;16.95;;;8.50;;
28022;SDS011;67403;50.104;8.758;2024-02-21T04:24:28;25.00;;;8.95;;
28022;SDS011;67403;50.104;8.758;2024-02-21T04:26:55;16.90;;;7.20;;
28022;SDS011;67403;50.104;8.758;2024-02-21T04:29:23;20.38;;;7.90;;
28022;SDS011;67403;50.104;8.758;2024-02-21T04:31:50;20.38;;;7.63;;
28022;SDS011;67403;50.104;8.758;2024-02-21T04:34:17;21.05;;;7.32;;
28022;SDS011;67403;50.104;8.758;2024-02-21T04:36:45;23.52;;;8.63;;
28022;SDS011;67403;50.104;8.758;2024-02-21T04:39:12;23.88;;;8.95;;
28022;SDS011;67403;50.104;8.758;2024-02-21T04:41:40;20.50;;;8.05;;
28022;SDS011;67403;50.104;8.758;2024-02-21T04:44:08;26.08;;;9.82;;
28022;SDS011;67403;50.104;8.758;2024-02-21T04:46:35;21.35;;;8.45;;
28022;SDS011;67403;50.104;8.758;2024-02-21T04:49:02;18.42;;;8.55;;
28022;SDS011;67403;50.104;8.758;2024-02-21T04:51:29;22.08;;;8.20;;
28022;SDS011;67403;50.104;8.758;2024-02-21T04:53:57;20.83;;;8.05;;
28022;SDS011;67403;50.104;8.758;2024-02-21T04:56:24;21.65;;;9.20;;
28022;SDS011;67403;50.104;8.758;2024-02-21T04:58:53;20.60;;;8.23;;
28022;SDS011;67403;50.104;8.758;2024-02-21T05:01:20;22.45;;;8.18;;
28022;SDS011;67403;50.104;8.758;2024-02-21T05:03:47;20.33;;;7.90;;
28022;SDS011;67403;50.104;8.758;2024-02-21T05:06:14;24.88;;;8.43;;
28022;SDS011;67403;50.104;8.758;2024-02-21T05:08:42;17.20;;;7.68;;
28022;SDS011;67403;50.104;8.758;2024-02-21T05:11:09;19.98;;;7.88;;
28022;SDS011;67403;50.104;8.758;2024-02-21T05:13:36;22.90;;;8.70;;
28022;SDS011;67403;50.104;8.758;2024-02-21T05:16:05;22.65;;;7.47;;
28022;SDS011;67403;50.104;8.758;2024-02-21T05:18:32;20.73;;;8.00;;
28022;SDS011;67403;50.104;8.758;2024-02-21T05:21:00;26.63;;;9.02;;
28022;SDS011;67403;50.104;8.758;2024-02-21T05:23:27;22.17;;;7.75;;
28022;SDS011;67403;50.104;8.758;2024-02-21T05:25:55;22.80;;;8.60;;
28022;SDS011;67403;50.104;8.758;2024-02-21T05:28:22;28.90;;;9.25;;
28022;SDS011;67403;50.104;8.758;2024-02-21T05:30:49;19.92;;;8.95;;
28022;SDS011;67403;50.104;8.758;2024-02-21T05:33:18;17.63;;;8.60;;
28022;SDS011;67403;50.104;8.758;2024-02-21T05:38:14;21.17;;;7.82;;
28022;SDS011;67403;50.104;8.758;2024-02-21T05:40:41;17.13;;;7.75;;
28022;SDS011;67403;50.104;8.758;2024-02-21T05:43:08;17.73;;;8.45;;
28022;SDS011;67403;50.104;8.758;2024-02-21T05:45:36;31.33;;;8.63;;
28022;SDS011;67403;50.104;8.758;2024-02-21T05:48:03;21.25;;;8.60;;
28022;SDS011;67403;50.104;8.758;2024-02-21T05:50:32;20.38;;;7.90;;
28022;SDS011;67403;50.104;8.758;2024-02-21T05:53:00;18.83;;;7.75;;
28022;SDS011;67403;50.104;8.758;2024-02-21T05:55:28;22.42;;;7.88;;
28022;SDS011;67403;50.104;8.758;2024-02-21T05:57:55;19.55;;;7.70;;
28022;SDS011;67403;50.104;8.758;2024-02-21T06:00:23;22.33;;;8.77;;
28022;SDS011;67403;50.104;8.758;2024-02-21T06:02:50;21.85;;;7.88;;
28022;SDS011;67403;50.104;8.758;2024-02-21T06:05:18;18.80;;;8.45;;
28022;SDS011;67403;50.104;8.758;2024-02-21T06:07:46;21.98;;;8.43;;
28022;SDS011;67403;50.104;8.758;2024-02-21T06:10:14;20.38;;;7.82;;
28022;SDS011;67403;50.104;8.758;2024-02-21T06:12:41;19.65;;;8.05;;
28022;SDS011;67403;50.104;8.758;2024-02-21T06:15:08;23.67;;;8.43;;
28022;SDS011;67403;50.104;8.758;2024-02-21T06:17:36;26.58;;;7.97;;
28022;SDS011;67403;50.104;8.758;2024-02-21T06:20:03;19.25;;;8.02;;
28022;SDS011;67403;50.104;8.758;2024-02-21T06:22:31;22.23;;;7.57;;
28022;SDS011;67403;50.104;8.758;2024-02-21T06:24:59;26.25;;;9.38;;
28022;SDS011;67403;50.104;8.758;2024-02-21T06:27:27;28.55;;;8.95;;
28022;SDS011;67403;50.104;8.758;2024-02-21T06:29:54;20.92;;;7.68;;
28022;SDS011;67403;50.104;8.758;2024-02-21T06:32:21;21.02;;;8.18;;
28022;SDS011;67403;50.104;8.758;2024-02-21T06:34:49;19.83;;;8.60;;
28022;SDS011;67403;50.104;8.758;2024-02-21T06:37:16;18.75;;;7.75;;
28022;SDS011;67403;50.104;8.758;2024-02-21T06:39:43;22.63;;;8.10;;
28022;SDS011;67403;50.104;8.758;2024-02-21T06:42:12;23.73;;;9.73;;
28022;SDS011;67403;50.104;8.758;2024-02-21T06:44:39;17.63;;;7.32;;
28022;SDS011;67403;50.104;8.758;2024-02-21T06:47:06;19.88;;;8.38;;
28022;SDS011;67403;50.104;8.758;2024-02-21T06:49:34;18.70;;;8.93;;
28022;SDS011;67403;50.104;8.758;2024-02-21T06:52:02;19.17;;;8.68;;
28022;SDS011;67403;50.104;8.758;2024-02-21T06:54:30;23.83;;;8.52;;
28022;SDS011;67403;50.104;8.758;2024-02-21T06:56:57;21.00;;;8.80;;
28022;SDS011;67403;50.104;8.758;2024-02-21T06:59:25;24.23;;;9.07;;
28022;SDS011;67403;50.104;8.758;2024-02-21T07:01:53;19.40;;;8.57;;
28022;SDS011;67403;50.104;8.758;2024-02-21T07:04:21;38.28;;;17.85;;
28022;SDS011;67403;50.104;8.758;2024-02-21T07:06:48;44.97;;;15.38;;
28022;SDS011;67403;50.104;8.758;2024-02-21T07:09:16;19.77;;;8.45;;
28022;SDS011;67403;50.104;8.758;2024-02-21T07:11:43;20.63;;;8.40;;
28022;SDS011;67403;50.104;8.758;2024-02-21T07:14:10;18.23;;;7.93;;
28022;SDS011;67403;50.104;8.758;2024-02-21T07:16:39;20.58;;;7.65;;
28022;SDS011;67403;50.104;8.758;2024-02-21T07:19:06;21.33;;;7.68;;
28022;SDS011;67403;50.104;8.758;2024-02-21T07:21:33;17.13;;;7.20;;
28022;SDS011;67403;50.104;8.758;2024-02-21T07:24:03;18.15;;;6.30;;
28022;SDS011;67403;50.104;8.758;2024-02-21T07:26:30;19.95;;;6.22;;
28022;SDS011;67403;50.104;8.758;2024-02-21T07:28:58;25.20;;;6.85;;
28022;SDS011;67403;50.104;8.758;2024-02-21T07:31:25;16.52;;;6.70;;
28022;SDS011;67403;50.104;8.758;2024-02-21T07:33:54;19.75;;;6.63;;
28022;SDS011;67403;50.104;8.758;2024-02-21T07:36:25;16.58;;;6.78;;
28022;SDS011;67403;50.104;8.758;2024-02-21T07:38:52;15.77;;;6.32;;
28022;SDS011;67403;50.104;8.758;2024-02-21T07:41:20;18.02;;;6.72;;
28022;SDS011;67403;50.104;8.758;2024-02-21T07:43:47;14.77;;;6.20;;
28022;SDS011;67403;50.104;8.758;2024-02-21T07:46:15;11.30;;;5.07;;
28022;SDS011;67403;50.104;8.758;2024-02-21T07:48:42;15.02;;;5.55;;
28022;SDS011;67403;50.104;8.758;2024-02-21T07:51:11;16.27;;;5.88;;
28022;SDS011;67403;50.104;8.758;2024-02-21T07:53:38;14.77;;;6.50;;
28022;SDS011;67403;50.104;8.758;2024-02-21T07:56:09;13.50;;;4.90;;
28022;SDS011;67403;50.104;8.758;2024-02-21T07:58:37;15.18;;;6.03;;
28022;SDS011;67403;50.104;8.758;2024-02-21T08:01:04;11.02;;;4.70;;
28022;SDS011;67403;50.104;8.758;2024-02-21T08:03:31;17.33;;;5.00;;
28022;SDS011;67403;50.104;8.758;2024-02-21T08:05:58;12.68;;;5.38;;
28022;SDS011;67403;50.104;8.758;2024-02-21T08:08:27;16.23;;;5.65;;
28022;SDS011;67403;50.104;8.758;2024-02-21T08:10:54;11.20;;;5.10;;
28022;SDS011;67403;50.104;8.758;2024-02-21T08:13:21;18.95;;;7.88;;
28022;SDS011;67403;50.104;8.758;2024-02-21T08:15:49;17.48;;;5.60;;
28022;SDS011;67403;50.104;8.758;2024-02-21T08:18:16;13.82;;;5.00;;
28022;SDS011;67403;50.104;8.758;2024-02-21T08:20:43;11.65;;;4.78;;
28022;SDS011;67403;50.104;8.758;2024-02-21T08:23:11;11.65;;;5.88;;
28022;SDS011;67403;50.104;8.758;2024-02-21T08:25:39;12.98;;;5.18;;
28022;SDS011;67403;50.104;8.758;2024-02-21T08:28:07;11.75;;;4.78;;
28022;SDS011;67403;50.104;8.758;2024-02-21T08:30:34;12.13;;;5.38;;
28022;SDS011;67403;50.104;8.758;2024-02-21T08:33:01;14.50;;;5.45;;
28022;SDS011;67403;50.104;8.758;2024-02-21T08:35:29;13.10;;;5.10;;
28022;SDS011;67403;50.104;8.758;2024-02-21T08:37:56;21.73;;;5.68;;
28022;SDS011;67403;50.104;8.758;2024-02-21T08:40:23;14.43;;;5.28;;
28022;SDS011;67403;50.104;8.758;2024-02-21T08:42:52;15.75;;;5.47;;
28022;SDS011;67403;50.104;8.758;2024-02-21T08:45:19;15.90;;;5.38;;
28022;SDS011;67403;50.104;8.758;2024-02-21T08:47:46;10.90;;;5.10;;
28022;SDS011;67403;50.104;8.758;2024-02-21T08:50:14;12.15;;;4.80;;
28022;SDS011;67403;50.104;8.758;2024-02-21T08:52:41;16.17;;;5.88;;
28022;SDS011;67403;50.104;8.758;2024-02-21T08:55:08;12.60;;;4.75;;
28022;SDS011;67403;50.104;8.758;2024-02-21T08:57:36;17.25;;;5.75;;
28022;SDS011;67403;50.104;8.758;2024-02-21T09:00:05;10.20;;;4.80;;
28022;SDS011;67403;50.104;8.758;2024-02-21T09:02:35;12.25;;;5.30;;
28022;SDS011;67403;50.104;8.758;2024-02-21T09:05:03;11.48;;;5.75;;
28022;SDS011;67403;50.104;8.758;2024-02-21T09:07:31;16.73;;;5.22;;
28022;SDS011;67403;50.104;8.758;2024-02-21T09:09:58;10.68;;;5.18;;
28022;SDS011;67403;50.104;8.758;2024-02-21T09:12:26;10.95;;;4.90;;
28022;SDS011;67403;50.104;8.758;2024-02-21T09:14:53;11.02;;;5.53;;
28022;SDS011;67403;50.104;8.758;2024-02-21T09:17:22;56.45;;;19.15;;
28022;SDS011;67403;50.104;8.758;2024-02-21T09:19:50;12.27;;;5.82;;
28022;SDS011;67403;50.104;8.758;2024-02-21T09:22:17;13.27;;;5.45;;
28022;SDS011;67403;50.104;8.758;2024-02-21T09:24:44;14.20;;;5.03;;
28022;SDS011;67403;50.104;8.758;2024-02-21T09:27:12;15.63;;;5.13;;
28022;SDS011;67403;50.104;8.758;2024-02-21T09:29:40;9.95;;;4.30;;
28022;SDS011;67403;50.104;8.758;2024-02-21T09:32:07;11.77;;;4.70;;
28022;SDS011;67403;50.104;8.758;2024-02-21T09:34:36;11.20;;;4.53;;
28022;SDS011;67403;50.104;8.758;2024-02-21T09:37:03;10.75;;;4.03;;
28022;SDS011;67403;50.104;8.758;2024-02-21T09:39:30;14.23;;;5.38;;
28022;SDS011;67403;50.104;8.758;2024-02-21T09:41:58;10.15;;;4.65;;
28022;SDS011;67403;50.104;8.758;2024-02-21T09:44:27;11.50;;;4.63;;
28022;SDS011;67403;50.104;8.758;2024-02-21T09:46:57;11.65;;;5.00;;
28022;SDS011;67403;50.104;8.758;2024-02-21T09:49:29;9.43;;;5.43;;
28022;SDS011;67403;50.104;8.758;2024-02-21T09:52:00;9.90;;;5.72;;
28022;SDS011;67403;50.104;8.758;2024-02-21T09:54:28;14.10;;;4.70;;
28022;SDS011;67403;50.104;8.758;2024-02-21T09:56:56;9.32;;;4.70;;
28022;SDS011;67403;50.104;8.758;2024-02-21T09:59:24;12.77;;;4.45;;
28022;SDS011;67403;50.104;8.758;2024-02-21T10:01:51;11.50;;;4.63;;
28022;SDS011;67403;50.104;8.758;2024-02-21T10:04:20;8.65;;;4.93;;
28022;SDS011;67403;50.104;8.758;2024-02-21T10:06:47;10.35;;;4.45;;
28022;SDS011;67403;50.104;8.758;2024-02-21T10:09:22;11.15;;;4.95;;
28022;SDS011;67403;50.104;8.758;2024-02-21T10:11:53;13.55;;;4.72;;
28022;SDS011;67403;50.104;8.758;2024-02-21T10:14:20;9.82;;;4.40;;
28022;SDS011;67403;50.104;8.758;2024-02-21T10:16:48;11.95;;;4.88;;
28022;SDS011;67403;50.104;8.758;2024-02-21T10:19:16;12.15;;;4.93;;
28022;SDS011;67403;50.104;8.758;2024-02-21T10:21:43;13.05;;;4.30;;
28022;SDS011;67403;50.104;8.758;2024-02-21T10:24:11;11.55;;;4.65;;
28022;SDS011;67403;50.104;8.758;2024-02-21T10:26:40;15.32;;;5.10;;
28022;SDS011;67403;50.104;8.758;2024-02-21T10:29:07;18.10;;;8.45;;
28022;SDS011;67403;50.104;8.758;2024-02-21T10:31:36;22.33;;;6.97;;
28022;SDS011;67403;50.104;8.758;2024-02-21T10:34:04;12.45;;;5.20;;
28022;SDS011;67403;50.104;8.758;2024-02-21T10:36:31;12.93;;;4.75;;
28022;SDS011;67403;50.104;8.758;2024-02-21T10:38:59;16.33;;;5.15;;
28022;SDS011;67403;50.104;8.758;2024-02-21T10:41:26;15.40;;;5.32;;
28022;SDS011;67403;50.104;8.758;2024-02-21T10:43:56;13.27;;;5.07;;
28022;SDS011;67403;50.104;8.758;2024-02-21T10:46:24;12.77;;;5.28;;
28022;SDS011;67403;50.104;8.758;2024-02-21T10:48:54;13.48;;;6.00;;
28022;SDS011;67403;50.104;8.758;2024-02-21T10:51:28;16.23;;;4.82;;
28022;SDS011;67403;50.104;8.758;2024-02-21T10:54:01;11.32;;;5.93;;
28022;SDS011;67403;50.104;8.758;2024-02-21T10:56:29;12.30;;;5.05;;
28022;SDS011;67403;50.104;8.758;2024-02-21T10:59:02;14.77;;;4.80;;
28022;SDS011;67403;50.104;8.758;2024-02-21T11:01:29;13.52;;;5.38;;
28022;SDS011;67403;50.104;8.758;2024-02-21T11:03:58;11.73;;;5.18;;
28022;SDS011;67403;50.104;8.758;2024-02-21T11:06:25;14.05;;;4.72;;
28022;SDS011;67403;50.104;8.758;2024-02-21T11:09:00;13.00;;;5.57;;
28022;SDS011;67403;50.104;8.758;2024-02-21T11:11:29;11.45;;;5.20;;
28022;SDS011;67403;50.104;8.758;2024-02-21T11:14:04;17.02;;;5.13;;
28022;SDS011;67403;50.104;8.758;2024-02-21T11:16:35;13.98;;;4.80;;
28022;SDS011;67403;50.104;8.758;2024-02-21T11:19:04;9.88;;;5.05;;
28022;SDS011;67403;50.104;8.758;2024-02-21T11:21:32;11.65;;;4.90;;
28022;SDS011;67403;50.104;8.758;2024-02-21T11:24:00;11.98;;;5.18;;
28022;SDS011;67403;50.104;8.758;2024-02-21T11:26:27;9.25;;;4.47;;
28022;SDS011;67403;50.104;8.758;2024-02-21T11:28:56;13.10;;;5.10;;
28022;SDS011;67403;50.104;8.758;2024-02-21T11:31:24;16.75;;;4.90;;
28022;SDS011;67403;50.104;8.758;2024-02-21T11:33:52;11.75;;;4.45;;
28022;SDS011;67403;50.104;8.758;2024-02-21T11:36:24;15.63;;;5.13;;
28022;SDS011;67403;50.104;8.758;2024-02-21T11:38:51;14.45;;;5.80;;
28022;SDS011;67403;50.104;8.758;2024-02-21T11:41:18;21.85;;;8.15;;
28022;SDS011;67403;50.104;8.758;2024-02-21T11:43:48;15.65;;;5.43;;
28022;SDS011;67403;50.104;8.758;2024-02-21T11:46:15;17.45;;;5.22;;
28022;SDS011;67403;50.104;8.758;2024-02-21T11:48:44;18.85;;;5.38;;
28022;SDS011;67403;50.104;8.758;2024-02-21T11:51:20;12.10;;;4.25;;
28022;SDS011;67403;50.104;8.758;2024-02-21T11:53:50;9.38;;;3.58;;
28022;SDS011;67403;50.104;8.758;2024-02-21T11:56:18;13.48;;;4.88;;
28022;SDS011;67403;50.104;8.758;2024-02-21T11:58:45;17.63;;;5.18;;
28022;SDS011;67403;50.104;8.758;2024-02-21T12:01:13;12.85;;;4.32;;
28022;SDS011;67403;50.104;8.758;2024-02-21T12:03:41;13.57;;;4.90;;
28022;SDS011;67403;50.104;8.758;2024-02-21T12:06:16;13.07;;;4.38;;
28022;SDS011;67403;50.104;8.758;2024-02-21T12:08:46;13.68;;;4.22;;
28022;SDS011;67403;50.104;8.758;2024-02-21T12:11:20;13.25;;;4.40;;
28022;SDS011;67403;50.104;8.758;2024-02-21T12:13:47;20.23;;;5.05;;
28022;SDS011;67403;50.104;8.758;2024-02-21T12:16:15;14.55;;;4.53;;
28022;SDS011;67403;50.104;8.758;2024-02-21T12:18:44;13.13;;;5.10;;
28022;SDS011;67403;50.104;8.758;2024-02-21T12:21:11;11.50;;;4.43;;
28022;SDS011;67403;50.104;8.758;2024-02-21T12:23:41;13.98;;;4.30;;
28022;SDS011;67403;50.104;8.758;2024-02-21T12:26:08;9.88;;;4.15;;
28022;SDS011;67403;50.104;8.758;2024-02-21T12:28:35;10.02;;;4.25;;
28022;SDS011;67403;50.104;8.758;2024-02-21T12:31:03;9.63;;;4.07;;
28022;SDS011;67403;50.104;8.758;2024-02-21T12:33:30;11.80;;;4.75;;
28022;SDS011;67403;50.104;8.758;2024-02-21T12:35:58;11.52;;;4.47;;
28022;SDS011;67403;50.104;8.758;2024-02-21T12:38:25;12.90;;;4.38;;
28022;SDS011;67403;50.104;8.758;2024-02-21T12:40:54;9.88;;;4.00;;
28022;SDS011;67403;50.104;8.758;2024-02-21T12:43:22;9.27;;;4.27;;
28022;SDS011;67403;50.104;8.758;2024-02-21T12:45:49;11.93;;;4.18;;
28022;SDS011;67403;50.104;8.758;2024-02-21T12:48:17;7.13;;;3.33;;
28022;SDS011;67403;50.104;8.758;2024-02-21T12:53:14;11.13;;;4.25;;
28022;SDS011;67403;50.104;8.758;2024-02-21T12:55:42;9.07;;;3.45;;
28022;SDS011;67403;50.104;8.758;2024-02-21T12:58:10;8.50;;;3.50;;
28022;SDS011;67403;50.104;8.758;2024-02-21T13:00:39;11.63;;;4.00;;
28022;SDS011;67403;50.104;8.758;2024-02-21T13:03:06;11.90;;;3.85;;
28022;SDS011;67403;50.104;8.758;2024-02-21T13:05:34;10.30;;;3.97;;
28022;SDS011;67403;50.104;8.758;2024-02-21T13:08:02;7.63;;;3.70;;
28022;SDS011;67403;50.104;8.758;2024-02-21T13:10:29;37.08;;;13.18;;
28022;SDS011;67403;50.104;8.758;2024-02-21T13:12:58;9.98;;;4.75;;
28022;SDS011;67403;50.104;8.758;2024-02-21T13:15:28;11.20;;;4.20;;
28022;SDS011;67403;50.104;8.758;2024-02-21T13:17:56;12.65;;;4.15;;
28022;SDS011;67403;50.104;8.758;2024-02-21T13:20:23;12.00;;;4.55;;
28022;SDS011;67403;50.104;8.758;2024-02-21T13:22:51;13.10;;;4.60;;
28022;SDS011;67403;50.104;8.758;2024-02-21T13:25:18;12.38;;;4.00;;
28022;SDS011;67403;50.104;8.758;2024-02-21T13:27:46;13.00;;;3.80;;
28022;SDS011;67403;50.104;8.758;2024-02-21T13:30:14;12.27;;;3.50;;
28022;SDS011;67403;50.104;8.758;2024-02-21T13:32:44;8.18;;;3.22;;
28022;SDS011;67403;50.104;8.758;2024-02-21T13:35:12;12.13;;;3.85;;
28022;SDS011;67403;50.104;8.758;2024-02-21T13:37:40;16.08;;;4.10;;
28022;SDS011;67403;50.104;8.758;2024-02-21T13:40:07;11.60;;;3.70;;
28022;SDS011;67403;50.104;8.758;2024-02-21T13:42:35;10.90;;;3.45;;
28022;SDS011;67403;50.104;8.758;2024-02-21T13:45:03;9.95;;;3.50;;
28022;SDS011;67403;50.104;8.758;2024-02-21T13:47:30;15.13;;;3.50;;
28022;SDS011;67403;50.104;8.758;2024-02-21T13:49:59;12.30;;;3.88;;
28022;SDS011;67403;50.104;8.758;2024-02-21T13:52:26;6.55;;;3.03;;
28022;SDS011;67403;50.104;8.758;2024-02-21T13:54:54;11.85;;;3.90;;
28022;SDS011;67403;50.104;8.758;2024-02-21T13:57:21;12.35;;;3.35;;
28022;SDS011;67403;50.104;8.758;2024-02-21T13:59:48;12.00;;;3.58;;
28022;SDS011;67403;50.104;8.758;2024-02-21T14:02:16;10.50;;;3.38;;
28022;SDS011;67403;50.104;8.758;2024-02-21T14:04:43;11.77;;;3.75;;
28022;SDS011;67403;50.104;8.758;2024-02-21T14:07:12;7.68;;;3.38;;
28022;SDS011;67403;50.104;8.758;2024-02-21T14:09:39;16.33;;;4.00;;
28022;SDS011;67403;50.104;8.758;2024-02-21T14:12:06;7.72;;;3.08;;
28022;SDS011;67403;50.104;8.758;2024-02-21T14:14:34;6.47;;;2.72;;
28022;SDS011;67403;50.104;8.758;2024-02-21T14:17:02;11.05;;;3.50;;
28022;SDS011;67403;50.104;8.758;2024-02-21T14:19:29;9.88;;;3.45;;
28022;SDS011;67403;50.104;8.758;2024-02-21T14:21:57;12.18;;;4.40;;
28022;SDS011;67403;50.104;8.758;2024-02-21T14:24:25;19.48;;;7.30;;
28022;SDS011;67403;50.104;8.758;2024-02-21T14:26:53;9.02;;;3.17;;
28022;SDS011;67403;50.104;8.758;2024-02-21T14:29:20;9.77;;;3.88;;
28022;SDS011;67403;50.104;8.758;2024-02-21T14:31:48;16.27;;;3.80;;
28022;SDS011;67403;50.104;8.758;2024-02-21T14:34:15;14.32;;;3.60;;
28022;SDS011;67403;50.104;8.758;2024-02-21T14:36:43;7.80;;;3.03;;
28022;SDS011;67403;50.104;8.758;2024-02-21T14:39:10;6.05;;;2.60;;
28022;SDS011;67403;50.104;8.758;2024-02-21T14:41:39;8.45;;;3.30;;
28022;SDS011;67403;50.104;8.758;2024-02-21T14:44:06;6.00;;;2.70;;